Surface/Precipitation History
01/19/2019 02:18  to  1/20/2019 02:18
Change End Date:
Date/Time
(MDT)
Sf
Temp Chem Water Layer Surface Precipitation
Sfc Pvt Sub Frz Factor Pct Dpth DpthThk IcePct Cond Salin FI Type Intens Accum Rate
01/20/2019 02:17 Chemically Wet 31.3F - 33F 31F 95 5% 0.00 in - 0% 13 mhos 1381 - None None - -
01/20/2019 02:07 Chemically Wet 31.5F - 33F 31F 95 4% 0.00 in - 0% 12 mhos 1307 - None None - -
01/20/2019 02:06 Chemically Wet 31.6F - 33F 31F 95 4% 0.00 in - 0% 12 mhos 1292 - Yes - - -
01/20/2019 01:57 Wet 32.0F - 33F 31F 95 4% 0.00 in - 0% 11 mhos 1174 - None None - -
01/20/2019 01:51 Wet 32.2F - 33F 31F 95 4% 0.00 in - 0% 10 mhos 1053 - None None - -
01/20/2019 01:47 Wet 32.2F - 33F 31F 95 4% 0.00 in - 0% 11 mhos 1100 - None None - -
01/20/2019 01:37 Wet 32.2F - 33F 31F 95 3% 0.00 in - 0% 9 mhos 913 - None None - -
01/20/2019 01:36 Wet 32.2F - 33F 31F 95 3% 0.00 in - 0% 9 mhos 874 - None None - -
01/20/2019 01:27 Wet 32.0F - 33F 31F 95 5% 0.00 in - 0% 13 mhos 1363 - None None - -
01/20/2019 01:21 Wet 32.0F - 33F 31F 95 5% 0.00 in - 0% 13 mhos 1363 - None None - -
01/20/2019 01:17 Wet 32.0F - 33F 31F 95 4% 0.00 in - 0% 12 mhos 1294 - None None - -
01/20/2019 01:06 Wet 32.2F - 33F 31F 95 4% 0.00 in - 0% 12 mhos 1223 - None None - -
01/20/2019 01:06 Wet 32.2F - 33F 31F 95 4% 0.00 in - 0% 12 mhos 1214 - None None - -
01/20/2019 00:56 Wet 32.2F - 33F 31F 95 4% 0.00 in - 0% 11 mhos 1135 - None None - -
01/20/2019 00:51 Wet 32.2F - 33F 31F 95 4% 0.00 in - 0% 10 mhos 1054 - None None - -
Date/Time
(MDT)
Sf
Temp Chem Water Layer Surface Precipitation
Sfc Pvt Sub Frz Factor Pct Dpth DpthThk IcePct Cond Salin FI Type Intens Accum Rate
01/20/2019 00:46 Chemically Wet 31.8F - 33F 31F 95 4% 0.00 in - 0% 12 mhos 1237 - None None - -
01/20/2019 00:36 Chemically Wet 31.6F - 33F 31F 95 4% 0.00 in - 0% 11 mhos 1187 - Yes - - -
01/20/2019 00:36 Chemically Wet 31.6F - 33F 31F 95 4% 0.00 in - 0% 11 mhos 1187 - Yes - - -
01/20/2019 00:26 Chemically Wet 31.8F - 33F 31F 95 4% 0.00 in - 0% 11 mhos 1120 - None None - -
01/20/2019 00:21 Chemically Wet 32.0F - 33F 31F 95 4% 0.00 in - 0% 11 mhos 1096 - None None - -
01/20/2019 00:16 Wet 32.0F - 33F 31F 95 3% 0.00 in - 0% 10 mhos 1019 - None None - -
01/20/2019 00:06 Wet 32.4F - 33F 31F 95 3% 0.00 in - 0% 9 mhos 879 - None None - -
01/20/2019 00:06 Wet 32.4F - 33F 31F 95 3% 0.00 in - 0% 9 mhos 879 - None None - -
01/19/2019 23:56 Wet 32.5F - 33F 31F 95 3% 0.00 in - 0% 8 mhos 853 - None None - -
01/19/2019 23:51 Wet 32.4F - 33F 31F 95 4% 0.00 in - 0% 11 mhos 1101 - None None - -
01/19/2019 23:46 Wet 32.7F - 33F 31F 95 3% 0.00 in - 0% 10 mhos 1045 - None None - -
01/19/2019 23:36 Wet 32.7F - 33F 31F 95 3% 0.00 in - 0% 9 mhos 967 - None None - -
01/19/2019 23:35 Wet 32.7F - 33F 31F 95 3% 0.00 in - 0% 9 mhos 945 - None None - -
01/19/2019 23:26 Wet 32.9F - 33F 31F 95 4% 0.00 in - 0% 10 mhos 1064 - Yes - - -
01/19/2019 23:21 Wet 32.9F - 33F 31F 95 4% 0.00 in - 0% 11 mhos 1078 - None None - -
Date/Time
(MDT)
Sf
Temp Chem Water Layer Surface Precipitation
Sfc Pvt Sub Frz Factor Pct Dpth DpthThk IcePct Cond Salin FI Type Intens Accum Rate
01/19/2019 23:16 Wet 32.9F - 33F 31F 95 3% 0.00 in - 0% 10 mhos 978 - None None - -
01/19/2019 23:06 Wet 33.3F - 33F 31F 95 3% 0.00 in - 0% 8 mhos 835 - None None - -
01/19/2019 23:05 Wet 33.4F - 33F 31F 95 3% 0.00 in - 0% 8 mhos 789 - None None - -
01/19/2019 22:56 Wet 33.3F - 33F 31F 95 4% 0.00 in - 0% 11 mhos 1168 - None None - -
01/19/2019 22:50 Wet 33.4F - 33F 31F 95 4% 0.00 in - 0% 11 mhos 1101 - None None - -
01/19/2019 22:46 Wet 33.8F - 33F 31F 95 4% 0.00 in - 0% 10 mhos 1055 - None None - -
01/19/2019 22:36 Wet 34.2F - 33F 31F 95 3% 0.00 in - 0% 9 mhos 911 - None None - -
01/19/2019 22:36 Wet 34.2F - 33F 31F 95 3% 0.00 in - 0% 9 mhos 911 - None None - -
01/19/2019 22:26 Wet 34.3F - 33F 31F 95 2% 0.00 in - 0% 6 mhos 625 - Yes - - -
01/19/2019 22:21 Wet 34.3F - 33F 31F 95 4% 0.00 in - 0% 11 mhos 1111 - None None - -
01/19/2019 22:16 Wet 34.3F - 33F 31F 95 3% 0.00 in - 0% 10 mhos 1000 - Yes - - -
01/19/2019 22:06 Wet 34.7F - 33F 31F 95 3% 0.00 in - 0% 8 mhos 814 - None None - -
01/19/2019 22:05 Wet 34.7F - 33F 31F 95 3% 0.00 in - 0% 8 mhos 798 - Yes - - -
01/19/2019 21:55 Wet 34.9F - 33F 31F 95 3% 0.00 in - 0% 10 mhos 943 - Yes - - -
01/19/2019 21:51 Wet 34.7F - 33F 31F 95 4% 0.00 in - 0% 11 mhos 1067 - Yes - - -
Date/Time
(MDT)
Sf
Temp Chem Water Layer Surface Precipitation
Sfc Pvt Sub Frz Factor Pct Dpth DpthThk IcePct Cond Salin FI Type Intens Accum Rate
01/19/2019 21:45 Wet 34.9F - 33F 31F 95 3% 0.00 in - 0% 10 mhos 959 - Yes - - -
01/19/2019 21:36 Wet 34.7F - 33F 31F 95 3% 0.00 in - 0% 9 mhos 863 - Yes - - -
01/19/2019 21:35 Wet 34.7F - 33F 31F 95 3% 0.00 in - 0% 9 mhos 863 - None None - -
01/19/2019 21:25 Wet 34.5F - 33F 31F 95 3% 0.00 in - 0% 9 mhos 929 - Yes - - -
01/19/2019 21:20 Wet 34.7F - 33F 31F 95 3% 0.00 in - 0% 8 mhos 821 - Yes - - -
01/19/2019 21:15 Wet 34.7F - 33F 31F 95 3% 0.00 in - 0% 9 mhos 896 - Yes - - -
01/19/2019 21:05 Wet 34.5F - 33F 31F 95 3% 0.00 in - 0% 8 mhos 775 - Yes - - -
01/19/2019 21:05 Wet 34.5F - 33F 31F 95 2% 0.00 in - 0% 8 mhos 749 - Yes - - -
01/19/2019 20:55 Wet 34.3F - 33F 32F 95 1% 0.00 in - 0% 3 mhos 308 - Yes - - -
01/19/2019 20:51 Wet 34.3F - 33F 32F 95 1% 0.00 in - 0% 3 mhos 291 - Yes - - -
01/19/2019 20:45 Wet 34.0F - 33F 32F 95 1% 0.00 in - 0% 2 mhos 161 - Yes - - -
01/19/2019 20:36 Wet 34.0F - 33F 32F 95 0% 0.00 in - 0% 1 mhos 57 - Yes - - -
01/19/2019 20:35 Wet 33.8F - 33F 32F 95 0% 0.00 in - 0% 1 mhos 74 - Yes - - -
01/19/2019 20:25 Wet 34.0F - 33F 32F 95 0% 0.00 in - 0% 1 mhos 86 - Yes - - -
01/19/2019 20:21 Wet 34.0F - 33F 32F 95 0% 0.00 in - 0% 1 mhos 83 - Yes - - -
Date/Time
(MDT)
Sf
Temp Chem Water Layer Surface Precipitation
Sfc Pvt Sub Frz Factor Pct Dpth DpthThk IcePct Cond Salin FI Type Intens Accum Rate
01/19/2019 20:15 Wet 33.8F - 33F 32F 95 0% 0.00 in - 0% 1 mhos 92 - Yes - - -
01/19/2019 20:05 Wet 34.0F - 33F 32F 95 0% 0.00 in - 0% 1 mhos 83 - Yes - - -
01/19/2019 20:05 Wet 34.0F - 33F 32F 95 0% 0.00 in - 0% 1 mhos 83 - Yes - - -
01/19/2019 19:55 Wet 34.2F - 33F 32F 95 0% 0.00 in - 0% 1 mhos 48 - None None - -
01/19/2019 19:50 Wet 34.3F - 33F 32F 85 0% 0.00 in - 0% 1 mhos 49 - None None - -
01/19/2019 19:45 Wet 34.2F - 33F 32F 85 0% 0.00 in - 0% 1 mhos 49 - None None - -
01/19/2019 19:35 Wet 34.3F - 33F 32F 90 0% 0.00 in - 0% 1 mhos 50 - Yes - - -
01/19/2019 19:35 Wet 34.3F - 33F 32F 90 0% 0.00 in - 0% 1 mhos 50 - Yes - - -
01/19/2019 19:25 Wet 34.3F - 33F 32F 90 0% 0.00 in - 0% 1 mhos 49 - None None - -
01/19/2019 19:21 Wet 34.3F - 33F 32F 95 0% 0.00 in - 0% 1 mhos 49 - None None - -
01/19/2019 19:15 Wet 34.3F - 33F 32F 95 0% 0.00 in - 0% 1 mhos 51 - None None - -
01/19/2019 19:05 Wet 34.0F - 33F 32F 95 0% 0.00 in - 0% 1 mhos 51 - None None - -
01/19/2019 19:05 Wet 34.0F - 33F 32F 95 0% 0.00 in - 0% 1 mhos 51 - None None - -
01/19/2019 18:55 Wet 34.0F - 33F 32F 95 0% 0.00 in - 0% 1 mhos 53 - None None - -
01/19/2019 18:50 Wet 34.2F - 33F 32F 95 0% 0.00 in - 0% 1 mhos 53 - None None - -
Date/Time
(MDT)
Sf
Temp Chem Water Layer Surface Precipitation
Sfc Pvt Sub Frz Factor Pct Dpth DpthThk IcePct Cond Salin FI Type Intens Accum Rate
01/19/2019 18:44 Wet 33.8F - 33F 32F 95 0% 0.00 in - 0% 1 mhos 54 - None None - -
01/19/2019 18:35 Wet 34.0F - 33F 32F 95 0% 0.00 in - 0% 1 mhos 54 - None None - -
01/19/2019 18:34 Wet 34.0F - 33F 32F 95 0% 0.00 in - 0% 1 mhos 54 - None None - -
01/19/2019 18:24 Wet 34.0F - 33F 32F 95 0% 0.00 in - 0% 1 mhos 54 - None None - -
01/19/2019 18:20 Wet 34.0F - 33F 32F 95 0% 0.00 in - 0% 1 mhos 54 - None None - -
01/19/2019 18:14 Wet 34.0F - 33F 32F 95 0% 0.00 in - 0% 1 mhos 55 - None None - -
01/19/2019 18:05 Wet 34.0F - 33F 32F 95 0% 0.00 in - 0% 1 mhos 57 - None None - -
01/19/2019 18:04 Wet 34.0F - 33F 32F 95 0% 0.00 in - 0% 1 mhos 57 - None None - -
01/19/2019 17:54 Wet 33.8F - 33F 32F 95 0% 0.00 in - 0% 1 mhos 58 - None None - -
01/19/2019 17:51 Wet 33.8F - 33F 32F 95 0% 0.00 in - 0% 1 mhos 60 - None None - -
01/19/2019 17:44 Wet 34.0F - 33F 32F 95 0% 0.00 in - 0% 1 mhos 59 - None None - -
01/19/2019 17:36 Wet 33.6F - 33F 32F 95 0% 0.00 in - 0% 1 mhos 55 - None None - -
01/19/2019 17:34 Wet 33.6F - 33F 32F 95 0% 0.00 in - 0% 1 mhos 55 - None None - -
01/19/2019 17:24 Wet 33.6F - 33F 32F 95 0% 0.00 in - 0% 1 mhos 59 - None None - -
01/19/2019 17:20 Wet 33.6F - 33F 32F 95 0% 0.00 in - 0% 1 mhos 61 - None None - -
Date/Time
(MDT)
Sf
Temp Chem Water Layer Surface Precipitation
Sfc Pvt Sub Frz Factor Pct Dpth DpthThk IcePct Cond Salin FI Type Intens Accum Rate
01/19/2019 17:14 Wet 33.8F - 33F 32F 95 0% 0.00 in - 0% 1 mhos 65 - None None - -
01/19/2019 17:05 Wet 33.8F - 33F 32F 95 0% 0.00 in - 0% 1 mhos 72 - None None - -
01/19/2019 17:04 Wet 34.0F - 33F 32F 95 0% 0.00 in - 0% 1 mhos 74 - None None - -
01/19/2019 16:54 Wet 33.4F - 33F 32F 95 0% 0.00 in - 0% 1 mhos 86 - None None - -
01/19/2019 16:50 Wet 33.4F - 33F 32F 95 0% 0.00 in - 0% 1 mhos 94 - None None - -
01/19/2019 16:44 Wet 33.8F - 33F 32F 95 0% 0.00 in - 0% 1 mhos 108 - None None - -
01/19/2019 16:35 Wet 33.6F - 33F 32F 95 1% 0.00 in - 0% 3 mhos 302 - None None - -
01/19/2019 16:34 Wet 33.8F - 33F 32F 95 1% 0.00 in - 0% 3 mhos 334 - None None - -
01/19/2019 16:24 Wet 33.8F - 33F 31F 95 2% 0.00 in - 0% 6 mhos 597 - None None - -
01/19/2019 16:20 Wet 34.0F - 33F 31F 95 2% 0.00 in - 0% 6 mhos 613 - None None - -
01/19/2019 16:14 Wet 34.0F - 33F 31F 95 3% 0.00 in - 0% 8 mhos 823 - None None - -
01/19/2019 16:05 Wet 34.2F - 33F 31F 95 3% 0.00 in - 0% 10 mhos 973 - None None - -
01/19/2019 16:04 Wet 34.2F - 33F 31F 95 3% 0.00 in - 0% 10 mhos 999 - None None - -
01/19/2019 15:54 Wet 34.3F - 33F 31F 95 4% 0.00 in - 0% 11 mhos 1121 - None None - -
01/19/2019 15:51 Wet 34.5F - 33F 31F 95 4% 0.00 in - 0% 12 mhos 1157 - None None - -
Date/Time
(MDT)
Sf
Temp Chem Water Layer Surface Precipitation
Sfc Pvt Sub Frz Factor Pct Dpth DpthThk IcePct Cond Salin FI Type Intens Accum Rate
01/19/2019 15:44 Wet 34.5F - 33F 31F 95 4% 0.00 in - 0% 12 mhos 1163 - None None - -
01/19/2019 15:36 Wet 34.5F - 33F 31F 95 4% 0.00 in - 0% 12 mhos 1223 - None None - -
01/19/2019 15:34 Wet 34.3F - 33F 31F 95 4% 0.00 in - 0% 13 mhos 1269 - None None - -
01/19/2019 15:23 Wet 34.7F - 33F 31F 95 4% 0.00 in - 0% 12 mhos 1248 - None None - -
01/19/2019 15:21 Wet 34.9F - 33F 31F 95 4% 0.00 in - 0% 13 mhos 1276 - None None - -
01/19/2019 15:13 Wet 35.1F - 33F 31F 95 4% 0.00 in - 0% 13 mhos 1285 - None None - -
01/19/2019 15:05 Wet 35.2F - 33F 31F 95 4% 0.00 in - 0% 13 mhos 1287 - None None - -
01/19/2019 15:03 Wet 35.2F - 33F 31F 95 4% 0.00 in - 0% 13 mhos 1266 - None None - -
01/19/2019 14:53 Wet 35.4F - 33F 31F 95 5% 0.00 in - 0% 15 mhos 1523 - None None - -
01/19/2019 14:50 Wet 35.6F - 33F 31F 95 5% 0.00 in - 0% 15 mhos 1490 - None None - -
01/19/2019 14:43 Wet 35.6F - 33F 31F 95 5% 0.00 in - 0% 16 mhos 1649 - None None - -
01/19/2019 14:36 Wet 36.0F - 33F 31F 95 5% 0.00 in - 0% 16 mhos 1584 - None None - -
01/19/2019 14:33 Wet 36.0F - 33F 31F 95 5% 0.00 in - 0% 16 mhos 1575 - None None - -
01/19/2019 14:23 Wet 36.0F - 33F 31F 95 5% 0.00 in - 0% 15 mhos 1456 - None None - -
01/19/2019 14:21 Wet 36.1F - 33F 31F 95 5% 0.00 in - 0% 14 mhos 1430 - None None - -
Date/Time
(MDT)
Sf
Temp Chem Water Layer Surface Precipitation
Sfc Pvt Sub Frz Factor Pct Dpth DpthThk IcePct Cond Salin FI Type Intens Accum Rate
01/19/2019 14:13 Wet 36.1F - 33F 30F 95 6% 0.00 in - 0% 18 mhos 1811 - None None - -
01/19/2019 14:06 Wet 36.0F - 33F 31F 95 6% 0.00 in - 0% 17 mhos 1662 - None None - -
01/19/2019 14:03 Wet 36.3F - 33F 31F 95 5% 0.00 in - 0% 16 mhos 1547 - None None - -
01/19/2019 13:53 Wet 36.5F - 33F 31F 95 5% 0.00 in - 0% 15 mhos 1442 - None None - -
01/19/2019 13:50 Wet 36.7F - 33F 31F 95 5% 0.00 in - 0% 17 mhos 1648 - None None - -
01/19/2019 13:43 Wet 36.5F - 33F 31F 95 5% 0.00 in - 0% 14 mhos 1384 - None None - -
01/19/2019 13:36 Wet 36.7F - 33F 31F 95 5% 0.00 in - 0% 16 mhos 1563 - None None - -
01/19/2019 13:33 Wet 36.7F - 33F 31F 95 5% 0.00 in - 0% 15 mhos 1525 - None None - -
01/19/2019 13:23 Wet 36.7F - 33F 31F 95 3% 0.00 in - 0% 10 mhos 1001 - None None - -
01/19/2019 13:20 Wet 36.7F - 33F 31F 95 3% 0.00 in - 0% 9 mhos 888 - None None - -
01/19/2019 13:13 Wet 36.7F - 33F 31F 95 4% 0.00 in - 0% 12 mhos 1181 - None None - -
01/19/2019 13:06 Wet 37.4F - 33F 31F 95 5% 0.00 in - 0% 17 mhos 1630 - None None - -
01/19/2019 13:03 Wet 37.4F - 33F 31F 95 5% 0.00 in - 0% 16 mhos 1564 - None None - -
01/19/2019 12:53 Wet 37.9F - 33F 30F 95 7% 0.00 in - 0% 21 mhos 2070 - None None - -
01/19/2019 12:50 Wet 38.1F - 33F 30F 95 6% 0.00 in - 0% 20 mhos 1930 - Other Other - -
Date/Time
(MDT)
Sf
Temp Chem Water Layer Surface Precipitation
Sfc Pvt Sub Frz Factor Pct Dpth DpthThk IcePct Cond Salin FI Type Intens Accum Rate
01/19/2019 12:43 Wet 39.2F - 33F 30F 95 7% 0.00 in - 0% 22 mhos 2125 - None None - -
01/19/2019 12:35 Wet 38.8F - 33F 30F 95 8% 0.00 in - 0% 23 mhos 2323 - None None - -
01/19/2019 12:32 Wet 38.5F - 33F 30F 95 7% 0.00 in - 0% 23 mhos 2241 - None None - -
01/19/2019 12:22 Wet 39.4F - 33F 30F 95 6% 0.00 in - 0% 19 mhos 1860 - None None - -
01/19/2019 12:20 Wet 39.6F - 33F 31F 95 6% 0.00 in - 0% 17 mhos 1652 - None None - -
01/19/2019 12:12 Wet 40.5F - 33F 31F 95 6% 0.00 in - 0% 18 mhos 1667 - None None - -
01/19/2019 12:05 Wet 39.2F - 33F 31F 95 5% 0.00 in - 0% 16 mhos 1493 - None None - -
01/19/2019 12:02 Wet 39.2F - 33F 31F 95 5% 0.00 in - 0% 14 mhos 1374 - None None - -
01/19/2019 11:52 Wet 38.5F - 33F 31F 95 5% 0.00 in - 0% 16 mhos 1535 - None None - -
01/19/2019 11:50 Wet 37.9F - 33F 31F 95 5% 0.00 in - 0% 17 mhos 1630 - None None - -
01/19/2019 11:42 Wet 37.0F - 33F 30F 95 6% 0.00 in - 0% 20 mhos 1949 - None None - -
01/19/2019 11:35 Wet 36.0F - 33F 30F 95 6% 0.00 in - 0% 19 mhos 1892 - None None - -
01/19/2019 11:32 Wet 35.2F - 33F 30F 95 6% 0.00 in - 0% 17 mhos 1715 - None None - -
01/19/2019 11:22 Wet 35.1F - 33F 30F 95 6% 0.00 in - 0% 19 mhos 1889 - None None - -
01/19/2019 11:20 Wet 34.7F - 33F 30F 95 7% 0.00 in - 0% 20 mhos 2041 - Yes - - -
Date/Time
(MDT)
Sf
Temp Chem Water Layer Surface Precipitation
Sfc Pvt Sub Frz Factor Pct Dpth DpthThk IcePct Cond Salin FI Type Intens Accum Rate
01/19/2019 11:12 Wet 34.2F - 33F 31F 95 5% 0.00 in - 0% 13 mhos 1365 - None None - -
01/19/2019 11:05 Wet 33.8F - 33F 31F 95 4% 0.00 in - 0% 13 mhos 1309 - Yes - - -
01/19/2019 11:02 Wet 33.4F - 33F 31F 95 3% 0.00 in - 0% 9 mhos 896 - None None - -
01/19/2019 10:52 Wet 32.4F - 33F 31F 95 3% 0.00 in - 0% 9 mhos 974 - Yes - - -
01/19/2019 10:50 Wet 32.0F - 33F 31F 95 3% 0.00 in - 0% 8 mhos 848 - None None - -
01/19/2019 10:42 Chemically Wet 31.5F - 33F 31F 95 3% 0.00 in - 0% 8 mhos 855 - None None - -
01/19/2019 10:35 Chemically Wet 30.6F - 33F 31F 95 3% - - 71% 8 mhos 896 - None None - -
01/19/2019 10:32 Chemically Wet 30.2F - 33F 31F 95 3% - - 77% 8 mhos 931 - Yes - - -
01/19/2019 10:22 Chemically Wet 29.3F - 33F 31F 95 3% - - 82% 8 mhos 1002 - None None - -
01/19/2019 10:22 Chemically Wet 29.3F - 33F 31F 95 3% - - 82% 8 mhos 999 - None None - -
01/19/2019 10:12 Chemically Wet 28.9F - 33F 31F 95 4% - - 80% 10 mhos 1220 - None None - -
01/19/2019 10:05 Chemically Wet 28.8F - 33F 31F 95 4% - - 81% 9 mhos 1198 - None None - -
01/19/2019 10:01 Chemically Wet 28.4F - 33F 31F 95 4% - - 81% 10 mhos 1312 - None None - -
01/19/2019 09:51 Chemically Wet 27.9F - 33F 31F 95 4% - - 84% 9 mhos 1213 - None None - -
01/19/2019 09:51 Chemically Wet 28.0F - 33F 31F 95 4% - - 84% 9 mhos 1209 - None None - -
Date/Time
(MDT)
Sf
Temp Chem Water Layer Surface Precipitation
Sfc Pvt Sub Frz Factor Pct Dpth DpthThk IcePct Cond Salin FI Type Intens Accum Rate
01/19/2019 09:41 Ice Warning 27.5F - 33F 31F 95 3% - - 89% 6 mhos 914 - None None - -
01/19/2019 09:35 Ice Warning 27.1F - 33F 32F 95 1% - - 95% 3 mhos 449 - None None - -
01/19/2019 09:31 Ice Warning 27.1F - 33F 32F 95 1% - - 95% 3 mhos 432 - None None - -
01/19/2019 09:21 Ice Warning 26.6F - 33F 32F 95 1% - - 96% 3 mhos 417 - None None - -
01/19/2019 09:21 Ice Warning 26.6F - 33F 32F 95 1% - - 96% 3 mhos 417 - None None - -
01/19/2019 09:11 Ice Warning 25.9F - 33F 32F 95 1% - - 96% 3 mhos 444 - None None - -
01/19/2019 09:06 Ice Warning 25.7F - 33F 32F 95 1% - - 96% 2 mhos 408 - None None - -
01/19/2019 09:01 Ice Warning 25.2F - 33F 32F 95 1% - - 97% 2 mhos 382 - None None - -
01/19/2019 08:51 Ice Warning 24.6F - 33F 32F 95 1% - - 97% 2 mhos 334 - None None - -
01/19/2019 08:50 Ice Warning 24.6F - 33F 32F 95 1% - - 97% 2 mhos 334 - None None - -
01/19/2019 08:41 Ice Warning 23.9F - 33F 32F 95 1% - - 97% 2 mhos 337 - None None - -
01/19/2019 08:36 Ice Warning 23.7F - 33F 32F 95 1% - - 97% 2 mhos 348 - None None - -
01/19/2019 08:31 Ice Warning 23.5F - 33F 32F 95 1% - - 97% 2 mhos 364 - None None - -
01/19/2019 08:21 Ice Warning 22.6F - 33F 32F 95 1% - - 97% 2 mhos 396 - None None - -
01/19/2019 08:21 Ice Warning 22.6F - 33F 32F 95 1% - - 97% 2 mhos 396 - None None - -
Date/Time
(MDT)
Sf
Temp Chem Water Layer Surface Precipitation
Sfc Pvt Sub Frz Factor Pct Dpth DpthThk IcePct Cond Salin FI Type Intens Accum Rate
01/19/2019 08:11 Ice Warning 22.1F - 33F 32F 95 1% - - 97% 2 mhos 382 - None None - -
01/19/2019 08:06 Ice Warning 22.3F - 33F 32F 95 1% - - 97% 2 mhos 375 - None None - -
01/19/2019 08:01 Ice Warning 21.7F - 33F 32F 95 1% - - 97% 2 mhos 388 - None None - -
01/19/2019 07:51 Ice Warning 21.4F - 33F 32F 85 1% - - 97% 2 mhos 394 - None None - -
01/19/2019 07:51 Ice Warning 21.4F - 33F 32F 85 1% - - 97% 2 mhos 394 - None None - -
01/19/2019 07:41 Ice Warning 20.8F - 33F 32F 80 1% - - 98% 2 mhos 395 - None None - -
01/19/2019 07:36 Ice Warning 20.7F - 33F 32F 85 1% - - 98% 2 mhos 402 - None None - -
01/19/2019 07:31 Ice Warning 20.7F - 33F 32F 80 1% - - 98% 1 mhos 380 - None None - -
01/19/2019 07:21 Ice Warning 20.5F - 33F 32F 80 1% - - 98% 1 mhos 371 - None None - -
01/19/2019 07:21 Ice Warning 20.5F - 33F 32F 80 1% - - 98% 1 mhos 371 - None None - -
01/19/2019 07:11 Ice Warning 20.5F - 33F 32F 75 1% - - 98% 1 mhos 361 - None None - -
01/19/2019 07:05 Ice Warning 20.7F - 33F 32F 80 1% - - 98% 1 mhos 355 - None None - -
01/19/2019 07:01 Ice Warning 20.3F - 33F 32F 75 1% - - 98% 1 mhos 366 - None None - -
01/19/2019 06:51 Ice Warning 20.3F - 33F 32F 80 1% - - 98% 1 mhos 373 - None None - -
01/19/2019 06:50 Ice Warning 20.5F - 33F 32F 80 1% - - 98% 1 mhos 369 - None None - -
Date/Time
(MDT)
Sf
Temp Chem Water Layer Surface Precipitation
Sfc Pvt Sub Frz Factor Pct Dpth DpthThk IcePct Cond Salin FI Type Intens Accum Rate
01/19/2019 06:40 Ice Warning 20.3F - 33F 32F 70 1% - - 98% 1 mhos 373 - None None - -
01/19/2019 06:35 Ice Warning 20.3F - 33F 32F 75 1% - - 98% 1 mhos 371 - None None - -
01/19/2019 06:30 Ice Warning 20.5F - 33F 32F 70 1% - - 98% 1 mhos 369 - None None - -
01/19/2019 06:20 Ice Warning 19.9F - 33F 32F 70 1% - - 98% 1 mhos 366 - None None - -
01/19/2019 06:20 Ice Warning 20.1F - 33F 32F 70 1% - - 98% 1 mhos 363 - None None - -
01/19/2019 06:10 Ice Warning 20.1F - 33F 32F 70 1% - - 98% 1 mhos 363 - None None - -
01/19/2019 06:05 Ice Warning 19.8F - 33F 32F 70 1% - - 98% 1 mhos 359 - None None - -
01/19/2019 06:00 Ice Warning 19.8F - 33F 32F 70 1% - - 98% 1 mhos 365 - None None - -
01/19/2019 05:50 Ice Warning 19.9F - 33F 32F 70 1% - - 98% 1 mhos 351 - None None - -
01/19/2019 05:50 Ice Warning 19.9F - 33F 32F 70 1% - - 98% 1 mhos 353 - None None - -
01/19/2019 05:40 Ice Warning 19.8F - 33F 32F 70 1% - - 98% 1 mhos 359 - None None - -
01/19/2019 05:36 Ice Warning 20.1F - 33F 32F 70 1% - - 98% 1 mhos 350 - None None - -
01/19/2019 05:30 Ice Warning 19.9F - 33F 32F 70 1% - - 98% 1 mhos 341 - None None - -
01/19/2019 05:20 Ice Warning 19.9F - 33F 32F 65 1% - - 98% 1 mhos 345 - None None - -
01/19/2019 05:20 Ice Warning 19.9F - 33F 32F 65 1% - - 98% 1 mhos 345 - None None - -
Date/Time
(MDT)
Sf
Temp Chem Water Layer Surface Precipitation
Sfc Pvt Sub Frz Factor Pct Dpth DpthThk IcePct Cond Salin FI Type Intens Accum Rate
01/19/2019 05:10 Ice Warning 19.9F - 33F 32F 65 1% - - 98% 1 mhos 341 - None None - -
01/19/2019 05:05 Ice Warning 19.8F - 33F 32F 60 1% - - 98% 1 mhos 342 - None None - -
01/19/2019 05:00 Ice Warning 19.4F - 33F 32F 60 1% - - 98% 1 mhos 349 - None None - -
01/19/2019 04:51 Ice Warning 19.4F - 34F 32F 55 1% - - 98% 1 mhos 355 - None None - -
01/19/2019 04:50 Ice Warning 19.4F - 34F 32F 55 1% - - 98% 1 mhos 353 - None None - -
01/19/2019 04:40 Ice Warning 19.2F - 34F 32F 55 1% - - 98% 1 mhos 355 - None None - -
01/19/2019 04:35 Ice Warning 19.2F - 33F 32F 55 1% - - 98% 1 mhos 358 - None None - -
01/19/2019 04:30 Ice Warning 19.2F - 34F 32F 55 1% - - 98% 1 mhos 358 - None None - -
01/19/2019 04:20 Ice Warning 19.0F - 33F 32F 55 1% - - 98% 1 mhos 363 - None None - -
01/19/2019 04:20 Ice Warning 19.0F - 33F 32F 55 1% - - 98% 1 mhos 363 - None None - -
01/19/2019 04:10 Ice Warning 19.0F - 34F 32F 55 1% - - 98% 1 mhos 377 - None None - -
01/19/2019 04:05 Ice Warning 18.9F - 34F 32F 55 1% - - 98% 1 mhos 376 - None None - -
01/19/2019 04:00 Ice Warning 18.9F - 34F 32F 55 1% - - 98% 1 mhos 386 - None None - -
01/19/2019 03:50 Ice Warning 18.7F - 34F 32F 55 1% - - 98% 1 mhos 379 - None None - -
01/19/2019 03:50 Ice Warning 18.7F - 34F 32F 55 1% - - 98% 1 mhos 379 - None None - -
Date/Time
(MDT)
Sf
Temp Chem Water Layer Surface Precipitation
Sfc Pvt Sub Frz Factor Pct Dpth DpthThk IcePct Cond Salin FI Type Intens Accum Rate
01/19/2019 03:40 Ice Warning 18.7F - 34F 32F 55 1% - - 98% 1 mhos 378 - None None - -
01/19/2019 03:35 Ice Warning 18.7F - 34F 32F 55 1% - - 98% 1 mhos 376 - None None - -
01/19/2019 03:30 Ice Warning 18.5F - 34F 32F 55 1% - - 98% 1 mhos 379 - None None - -
01/19/2019 03:20 Ice Warning 18.7F - 34F 32F 55 1% - - 98% 1 mhos 370 - None None - -
01/19/2019 03:19 Ice Warning 18.7F - 34F 32F 55 1% - - 98% 1 mhos 370 - None None - -
01/19/2019 03:09 Ice Warning 18.5F - 34F 32F 55 1% - - 98% 1 mhos 374 - None None - -
01/19/2019 03:05 Ice Warning 18.5F - 34F 32F 60 1% - - 98% 1 mhos 366 - None None - -
01/19/2019 02:59 Ice Warning 18.5F - 34F 32F 60 1% - - 98% 1 mhos 363 - None None - -
01/19/2019 02:50 Ice Warning 18.3F - 34F 32F 60 1% - - 98% 1 mhos 362 - None None - -
01/19/2019 02:49 Ice Warning 18.3F - 34F 32F 60 1% - - 98% 1 mhos 373 - None None - -
01/19/2019 02:39 Ice Warning 18.3F - 34F 32F 55 1% - - 98% 1 mhos 371 - None None - -
01/19/2019 02:35 Ice Warning 18.3F - 34F 32F 60 1% - - 98% 1 mhos 373 - None None - -
01/19/2019 02:29 Ice Warning 18.5F - 34F 32F 55 1% - - 98% 1 mhos 371 - None None - -
01/19/2019 02:20 Ice Warning 18.3F - 34F 32F 55 1% - - 98% 1 mhos 381 - None None - -
01/19/2019 02:19 Ice Warning 18.5F - 34F 32F 60 1% - - 98% 1 mhos 374 - None None - -
Change End Date:

Copyright © 1998-2015 Vaisala, Inc.
All Rights Reserved
Send comments about the data to:
SCAN Web ® is a registered trademark of Vaisala, Inc.
SCAN Web Version 6.0